• Join FlightAware (Why Join?)
  • Login
  • US Flag 
12:51AM EDT


 

Airport Tracker/Info


-or-


 

Live Flight TrackerFlight Track Log ✈ ASQ5740 ✈ 23-Nov-2013 ✈ KGSP - KIAD

Flight Track Log - Related Links

Times and Time Zones

All times are in EST time to prevent confusion due to time zone crossing. See the ASQ5740 flight status page for this flight to view local times or setup timezone preferences in your user account.

Time Position Orientation Groundspeed Altitude Reporting Facility
EST Latitude Longitude Course Direction KTS MPH feet Rate Location/Type
03:08PM 35.0208 -82.1136 38° Northeast 225 259 6,600  Level Atlanta Center
03:09PM 35.0739 -82.0339 51° Northeast 263 303 9,300 2,100 Climbing Atlanta Center
03:10PM 35.3121 -81.7618 71° East  Level Estimated
03:10PM 35.1308 -81.9486 51° Northeast 303 349 10,800  Level Atlanta Center
03:11PM 35.4141 -81.7053 24° Northeast  Level FlightAware Approximate
03:11PM 35.2244 -81.9361 North 303 349 12,400  Level Atlanta Center
03:13PM 35.3936 -81.8222 29° Northeast 328 377 16,100 1,560 Climbing Atlanta Center
03:14PM 35.4667 -81.7158 50° Northeast 371 427 17,200 1,080 Climbing Atlanta Center
03:15PM 35.5439 -81.6039 50° Northeast 400 460 18,300 1,200 Climbing Atlanta Center
03:16PM 35.6017 -81.4692 62° Northeast 432 497 19,600 1,200 Climbing Atlanta Center
03:17PM 35.6464 -81.3222 69° East 438 504 20,700 1,080 Climbing Atlanta Center
03:18PM 35.6989 -81.1492 69° East 464 534 21,800 960 Climbing Atlanta Center
03:19PM 35.7431 -80.9942 71° East 476 548 22,700 900 Climbing Atlanta Center
03:20PM 35.7892 -80.8414 70° East 476 548 23,600 900 Climbing Atlanta Center
03:21PM 35.8353 -80.6858 70° East 476 548 24,500 360 Climbing Atlanta Center
03:23PM 35.9464 -80.3078 70° East 485 558 25,000 120 Climbing Washington Center
03:24PM 35.9967 -80.1389 70° East 503 579 25,000  Level Washington Center
03:25PM 36.0486 -79.9747 69° East 503 579 25,000  Level Washington Center
03:26PM 36.1333 -79.8253 55° Northeast 516 594 25,000  Level Washington Center
03:27PM 36.2178 -79.6753 55° Northeast 523 602 25,000  Level Washington Center
03:28PM 36.2933 -79.5400 55° Northeast 523 602 25,000  Level Washington Center
03:29PM 36.3708 -79.4047 55° Northeast 528 608 25,000  Level Washington Center
03:30PM 36.4681 -79.2286 55° Northeast 528 608 25,000  Level Washington Center
03:31PM 36.5472 -79.0900 55° Northeast 509 586 25,000  Level Washington Center
03:32PM 36.6244 -78.9511 55° Northeast 493 567 25,000  Level Washington Center
03:33PM 36.6903 -78.8272 56° Northeast 488 562 25,000  Level Washington Center
03:34PM 36.7736 -78.6725 56° Northeast 483 556 25,000  Level Washington Center
03:35PM 36.8522 -78.5328 55° Northeast 478 550 25,000  Level Washington Center
03:36PM 36.9200 -78.4056 56° Northeast 478 550 25,000  Level Washington Center
03:37PM 37.0050 -78.2500 56° Northeast 483 556 25,000  Level Washington Center
03:38PM 37.0986 -78.1619 37° Northeast 464 534 25,000 -420 Level Washington Center
03:39PM 37.2006 -78.0819 32° Northeast 453 521 24,200 -840 Descending Washington Center
03:40PM 37.3000 -78.0042 32° Northeast 435 501 23,400 -840 Descending Washington Center
03:41PM 37.3997 -77.9289 31° Northeast 423 487 22,600 -720 Descending Washington Center
03:42PM 37.5014 -77.8508 31° Northeast 416 479 22,000 -360 Descending Washington Center
03:43PM 37.6047 -77.7858 26° Northeast 411 473 22,000  Level Washington Center
03:44PM 37.7081 -77.7233 26° Northeast 406 467 22,000  Level Washington Center
03:45PM 37.8114 -77.6631 25° Northeast 406 467 22,000 -960 Level Washington Center
03:46PM 37.9167 -77.6000 25° Northeast 406 467 20,200 -2,280 Descending Washington Center
03:47PM 38.0156 -77.5394 26° Northeast 399 459 17,500 -2,940 Descending Washington Center
03:48PM 38.1033 -77.5286 North 339 390 14,300 -3,240 Descending Washington Center
03:49PM 38.1811 -77.4911 21° North 327 376 11,000 -2,220 Descending Washington Center
03:50PM 38.2428 -77.4133 45° Northeast 304 350 10,000 -600 Descending Washington Center
03:51PM 38.3186 -77.3647 27° Northeast 304 350 9,900 -540 Descending Washington Center
03:52PM 38.3700 -77.4083 326° Northwest 235 270 9,000 -840 Descending Washington Center
03:53PM 38.3731 -77.4853 273° West 159 183 8,200 -720 Descending Washington Center
03:54PM 38.4461 -77.4792 North 196 226 7,600 -660 Descending Washington Center
03:55PM 38.5214 -77.4706 North 228 262 7,000 -300 Descending Washington Center
03:56PM 38.5922 -77.4697 North 246 283 7,000 -180 Level Washington Center
03:57PM 38.6528 -77.4658 North 238 274 6,700 -780 Descending Washington Center
03:58PM 38.7069 -77.4644 North 218 251 5,500 -1,320 Descending Washington Center
04:00PM 38.7833 -77.4667 359° North 174 200 3,700 -1,260 Descending Potomac TRACON
04:01PM 38.8333 -77.4667 360° North 168 193 2,600 -1,020 Descending Potomac TRACON
04:02PM 38.8667 -77.4667 360° North 157 181 1,700 -840 Descending Potomac TRACON
04:03PM 38.9000 -77.4667 360° North 125 144 1,000 -720 Descending Potomac TRACON